Time;durP1;ratioP1;P1;durP2;ratioP2;P2;SDS_P1;SDS_P2;PMS_P1;PMS_P2;Temp;Humidity;BMP_temperature;BMP_pressure;BME280_temperature;BME280_humidity;BME280_pressure;Samples;Min_cycle;Max_cycle;Signal;HPM_P1;HPM_P2
2021/05/05 00:02:19;;;;;;;8.90;5.22;;;;;;;15.72;57.56;93478.38;5008735;28;20046;-82
2021/05/05 00:04:44;;;;;;;6.20;4.85;;;;;;;15.82;56.08;93480.63;5012571;28;20045;-82
2021/05/05 00:07:10;;;;;;;11.40;5.70;;;;;;;15.93;56.19;93487.06;5011503;28;20046;-82
2021/05/05 00:09:35;;;;;;;6.97;4.60;;;;;;;15.85;56.56;93482.63;5011922;28;20049;-82
2021/05/05 00:12:01;;;;;;;7.78;4.82;;;;;;;15.77;55.61;93464.84;5009913;28;20088;-82
2021/05/05 00:14:27;;;;;;;9.73;4.85;;;;;;;15.86;55.64;93489.50;5007152;28;20428;-82
2021/05/05 00:16:52;;;;;;;9.75;5.15;;;;;;;15.70;57.30;93480.56;5007564;28;20056;-83
2021/05/05 00:19:19;;;;;;;7.78;4.70;;;;;;;15.66;57.78;93474.34;5013135;28;20025;-82
2021/05/05 00:21:45;;;;;;;10.02;5.20;;;;;;;15.78;57.37;93473.63;5020362;28;20043;-82
2021/05/05 00:24:11;;;;;;;7.25;5.35;;;;;;;15.84;57.25;93470.41;5009773;28;20049;-83
2021/05/05 00:26:37;;;;;;;10.32;5.72;;;;;;;15.93;56.14;93473.75;5029446;28;20049;-82
2021/05/05 00:29:03;;;;;;;7.18;4.82;;;;;;;15.85;56.20;93469.28;5006625;28;20107;-82
2021/05/05 00:31:29;;;;;;;6.68;4.82;;;;;;;15.66;56.41;93466.34;5016820;28;20029;-83
2021/05/05 00:33:54;;;;;;;9.98;4.35;;;;;;;15.68;55.42;93460.69;5010043;28;20048;-83
2021/05/05 00:36:19;;;;;;;9.00;5.47;;;;;;;15.77;55.75;93467.50;5028505;28;20041;-82
2021/05/05 00:38:45;;;;;;;7.40;4.88;;;;;;;15.85;56.69;93465.84;5030980;28;20042;-82
2021/05/05 00:41:11;;;;;;;7.00;4.07;;;;;;;15.89;55.33;93458.75;5030600;28;20052;-82
2021/05/05 00:43:42;;;;;;;4.93;4.03;;;;;;;15.69;53.72;93446.25;5024657;28;20052;-82
2021/05/05 00:46:08;;;;;;;6.18;5.13;;;;;;;15.71;56.12;93442.16;5029460;28;20036;-82
2021/05/05 00:48:34;;;;;;;6.53;5.53;;;;;;;15.84;56.54;93446.41;5026610;28;20033;-82
2021/05/05 00:51:01;;;;;;;7.95;4.93;;;;;;;15.60;57.05;93431.13;5028906;28;20132;-83
2021/05/05 00:53:26;;;;;;;8.13;5.13;;;;;;;15.82;57.44;93448.66;5034555;28;20495;-83
2021/05/05 00:55:52;;;;;;;8.13;5.30;;;;;;;15.81;57.35;93430.31;5027267;28;20061;-82
2021/05/05 00:58:18;;;;;;;7.85;4.90;;;;;;;15.83;57.05;93449.44;5029741;28;20079;-82
2021/05/05 01:00:46;;;;;;;12.48;5.47;;;;;;;15.66;57.56;93445.03;5012086;28;20033;-82
2021/05/05 01:03:12;;;;;;;6.93;5.10;;;;;;;15.63;57.82;93437.72;5012605;28;20416;-82
2021/05/05 01:05:38;;;;;;;6.65;5.38;;;;;;;15.52;59.13;93429.34;5011044;28;20048;-83
2021/05/05 01:08:05;;;;;;;7.25;4.35;;;;;;;15.40;56.75;93431.13;5010797;28;20610;-82
2021/05/05 01:10:31;;;;;;;10.93;5.32;;;;;;;15.47;58.73;93429.53;5009817;28;20046;-82
2021/05/05 01:12:57;;;;;;;5.28;4.32;;;;;;;15.29;58.30;93419.34;5011858;28;20026;-82
2021/05/05 01:15:22;;;;;;;9.73;5.18;;;;;;;15.10;57.28;93428.56;5027958;28;20120;-83
2021/05/05 01:17:48;;;;;;;9.57;4.78;;;;;;;15.13;57.81;93433.25;5015606;28;20574;-82
2021/05/05 01:20:14;;;;;;;9.85;4.63;;;;;;;15.26;58.08;93435.97;5016252;28;20466;-82
2021/05/05 01:22:40;;;;;;;6.63;5.10;;;;;;;15.22;56.32;93413.75;5027791;28;20225;-82
2021/05/05 01:25:06;;;;;;;8.15;4.57;;;;;;;15.06;57.55;93427.66;5032019;28;20067;-82
2021/05/05 01:27:32;;;;;;;5.00;4.40;;;;;;;14.91;58.32;93404.28;5029984;28;20056;-82
2021/05/05 01:29:57;;;;;;;5.53;4.47;;;;;;;15.03;57.44;93423.00;5028350;28;20124;-82
2021/05/05 01:32:24;;;;;;;7.57;4.82;;;;;;;15.04;58.19;93413.91;5032900;28;20515;-83
2021/05/05 01:34:51;;;;;;;6.25;4.60;;;;;;;15.12;58.05;93415.72;5014027;28;20042;-82
2021/05/05 01:37:16;;;;;;;6.28;4.80;;;;;;;15.09;57.54;93426.25;5030268;28;20041;-82
2021/05/05 01:39:42;;;;;;;8.95;4.63;;;;;;;15.15;57.53;93430.25;5031941;28;20466;-82
2021/05/05 01:42:08;;;;;;;8.02;4.68;;;;;;;15.19;58.02;93420.53;5024967;28;20099;-82
2021/05/05 01:44:36;;;;;;;7.90;5.40;;;;;;;15.18;58.10;93414.44;5028557;28;20141;-82
2021/05/05 01:47:02;;;;;;;5.88;4.50;;;;;;;15.14;58.35;93410.84;5034248;28;20037;-82
2021/05/05 01:49:28;;;;;;;6.70;4.82;;;;;;;14.86;58.56;93380.53;5032484;28;20388;-82
2021/05/05 01:51:56;;;;;;;11.65;6.57;;;;;;;15.02;58.97;93410.00;5013925;28;20037;-83
2021/05/05 01:54:23;;;;;;;5.40;4.90;;;;;;;14.93;59.92;93422.59;5025917;28;20092;-82
2021/05/05 01:56:49;;;;;;;13.60;6.38;;;;;;;14.96;60.43;93428.03;5030721;28;20136;-82
2021/05/05 01:59:14;;;;;;;8.88;6.18;;;;;;;15.00;60.43;93420.22;5022960;28;20168;-83
2021/05/05 02:01:40;;;;;;;6.25;5.47;;;;;;;15.11;59.56;93421.34;5018813;28;20100;-83
2021/05/05 02:04:06;;;;;;;7.80;4.97;;;;;;;15.04;58.53;93408.59;5034191;28;20122;-83
2021/05/05 02:06:32;;;;;;;11.15;5.35;;;;;;;15.02;59.09;93410.78;5031985;28;20144;-83
2021/05/05 02:08:59;;;;;;;8.55;5.53;;;;;;;15.09;59.16;93426.25;5018362;28;20104;-83
2021/05/05 02:11:27;;;;;;;6.32;4.63;;;;;;;15.09;59.42;93413.72;5012934;28;20046;-83
2021/05/05 02:13:53;;;;;;;7.57;5.07;;;;;;;15.15;59.48;93412.41;5019932;28;20048;-82
2021/05/05 02:16:18;;;;;;;8.30;5.10;;;;;;;15.06;59.61;93394.94;5030367;28;20029;-82
2021/05/05 02:18:44;;;;;;;10.05;5.15;;;;;;;15.02;59.79;93402.03;5033064;28;20041;-82
2021/05/05 02:21:09;;;;;;;6.82;4.18;;;;;;;15.14;59.75;93396.78;5012258;28;20092;-82
2021/05/05 02:23:35;;;;;;;6.63;4.82;;;;;;;15.08;59.54;93380.22;5026547;28;20144;-82
2021/05/05 02:26:01;;;;;;;7.78;5.05;;;;;;;15.15;60.22;93393.75;5022754;28;20385;-82
2021/05/05 02:28:27;;;;;;;6.22;5.28;;;;;;;15.08;60.21;93396.19;5015365;28;20080;-82
2021/05/05 02:30:53;;;;;;;6.32;4.63;;;;;;;15.14;60.89;93397.56;5033373;28;20037;-83
2021/05/05 02:33:19;;;;;;;7.10;5.43;;;;;;;15.06;60.75;93406.38;5027587;28;20056;-82
2021/05/05 02:35:44;;;;;;;10.75;6.10;;;;;;;15.07;60.91;93399.94;5032678;28;20054;-82
2021/05/05 02:38:10;;;;;;;6.72;5.07;;;;;;;15.20;60.27;93406.09;5032024;28;20585;-82
2021/05/05 02:40:37;;;;;;;9.57;5.13;;;;;;;15.13;60.71;93406.63;5029458;28;20045;-82
2021/05/05 02:43:03;;;;;;;9.23;5.47;;;;;;;15.08;60.93;93395.41;5031330;28;20033;-82
2021/05/05 02:45:29;;;;;;;6.00;4.68;;;;;;;14.98;60.59;93379.84;5017975;28;20045;-82
2021/05/05 02:47:54;;;;;;;12.70;7.65;;;;;;;15.09;61.67;93396.97;5029032;28;20049;-82
2021/05/05 02:50:22;;;;;;;52.05;23.33;;;;;;;15.02;61.75;93400.16;5031259;28;20064;-83
2021/05/05 02:52:48;;;;;;;6.95;5.80;;;;;;;15.07;62.17;93407.16;5026661;28;20082;-82
2021/05/05 02:55:13;;;;;;;8.77;6.32;;;;;;;14.89;62.74;93374.59;5013359;28;20961;-82
2021/05/05 02:57:39;;;;;;;9.50;5.88;;;;;;;15.06;62.13;93389.63;5034148;28;20030;-82
2021/05/05 03:00:09;;;;;;;5.72;5.13;;;;;;;15.14;61.74;93399.44;5007935;28;20445;-82
2021/05/05 03:02:34;;;;;;;10.80;5.50;;;;;;;14.97;62.11;93391.56;5025280;28;20049;-82
2021/05/05 03:05:00;;;;;;;6.72;5.65;;;;;;;15.01;62.79;93397.78;5021972;28;20561;-82
2021/05/05 03:07:25;;;;;;;19.35;9.38;;;;;;;14.96;62.85;93384.69;5027085;28;20061;-82
2021/05/05 03:09:51;;;;;;;6.65;5.22;;;;;;;15.11;62.19;93395.53;5010325;28;20507;-82
2021/05/05 03:12:17;;;;;;;10.25;5.68;;;;;;;15.06;62.62;93390.41;5028802;28;20099;-82
2021/05/05 03:14:42;;;;;;;6.50;5.80;;;;;;;14.91;63.42;93392.88;5018979;28;20100;-82
2021/05/05 03:17:07;;;;;;;15.85;9.93;;;;;;;14.88;63.75;93390.88;5020897;28;20041;-82
2021/05/05 03:19:33;;;;;;;15.75;9.10;;;;;;;14.99;63.16;93392.03;5011484;28;20052;-82
2021/05/05 03:21:59;;;;;;;7.40;6.00;;;;;;;14.91;62.48;93396.31;5033963;28;20033;-83
2021/05/05 03:24:25;;;;;;;16.83;7.55;;;;;;;14.67;62.75;93369.56;5018841;28;20524;-83
2021/05/05 03:26:50;;;;;;;8.98;6.32;;;;;;;14.85;62.73;93404.81;5012301;28;20128;-82
2021/05/05 03:29:16;;;;;;;7.30;6.45;;;;;;;14.77;62.73;93398.44;5018796;28;20099;-82
2021/05/05 03:31:42;;;;;;;12.82;6.03;;;;;;;14.84;63.33;93404.03;5031034;28;20052;-82
2021/05/05 03:34:08;;;;;;;11.27;6.93;;;;;;;14.82;63.07;93405.44;5032028;28;20030;-82
2021/05/05 03:36:33;;;;;;;8.23;6.47;;;;;;;14.75;63.53;93392.69;5031879;28;20044;-82
2021/05/05 03:39:00;;;;;;;10.63;5.70;;;;;;;14.78;62.43;93393.91;5032333;28;20033;-83
2021/05/05 03:41:26;;;;;;;8.70;6.25;;;;;;;14.69;62.38;93380.69;5036246;28;20395;-82
2021/05/05 03:43:52;;;;;;;7.80;5.57;;;;;;;14.79;62.51;93395.47;5031287;28;20057;-82
2021/05/05 03:46:17;;;;;;;8.93;5.32;;;;;;;14.78;62.85;93400.00;5029902;28;20048;-82
2021/05/05 03:48:43;;;;;;;9.63;5.85;;;;;;;14.66;63.79;93402.59;5031483;28;20022;-82
2021/05/05 03:51:09;;;;;;;9.60;6.38;;;;;;;14.64;63.86;93399.47;5030479;28;20108;-82
2021/05/05 03:53:34;;;;;;;6.68;5.93;;;;;;;14.61;63.53;93395.56;5045550;28;20052;-82
2021/05/05 03:56:00;;;;;;;9.13;6.85;;;;;;;14.64;64.26;93404.81;5025087;28;20040;-82
2021/05/05 03:58:25;;;;;;;15.00;7.90;;;;;;;14.74;63.04;93405.19;5030661;28;20048;-81
2021/05/05 04:00:51;;;;;;;10.68;7.53;;;;;;;14.72;64.58;93406.63;5035561;28;20575;-82
2021/05/05 04:03:16;;;;;;;12.80;7.30;;;;;;;14.68;65.67;93393.19;5029116;28;20587;-82
2021/05/05 04:05:42;;;;;;;10.85;7.20;;;;;;;14.88;64.09;93404.16;5027342;28;20463;-82
2021/05/05 04:08:07;;;;;;;13.63;8.98;;;;;;;14.89;64.83;93414.50;5026088;28;20037;-82
2021/05/05 04:10:33;;;;;;;17.02;11.98;;;;;;;14.90;64.57;93408.06;5029351;28;20048;-83
2021/05/05 04:13:00;;;;;;;24.85;11.82;;;;;;;15.06;65.67;93425.00;5031305;28;20051;-82
2021/05/05 04:15:25;;;;;;;14.85;8.63;;;;;;;15.16;64.63;93411.28;5027509;28;20048;-84
2021/05/05 04:17:51;;;;;;;11.13;7.88;;;;;;;15.25;63.72;93418.44;5029733;28;20053;-82
2021/05/05 04:20:19;;;;;;;9.65;7.47;;;;;;;15.16;64.82;93405.97;5031496;28;20047;-82
2021/05/05 04:22:44;;;;;;;10.77;8.05;;;;;;;15.25;64.83;93418.44;5026376;28;20041;-81
2021/05/05 04:25:11;;;;;;;9.82;7.18;;;;;;;15.33;64.12;93417.59;5032581;28;20472;-82
2021/05/05 04:27:46;;;;;;;14.35;7.60;;;;;;;15.44;64.05;93413.44;5028826;28;20056;-82
2021/05/05 04:30:13;;;;;;;;;;;;;;;15.51;62.92;93419.78;5031350;28;20049;-83
2021/05/05 04:32:41;;;;;;;16.80;9.40;;;;;;;15.60;62.61;93419.72;5027865;28;19932;-83
2021/05/05 04:35:08;;;;;;;12.57;8.82;;;;;;;15.67;63.12;93411.97;5023618;28;20147;-83
2021/05/05 04:37:33;;;;;;;13.63;8.18;;;;;;;15.85;61.79;93408.00;5023785;28;20338;-82
2021/05/05 04:40:05;;;;;;;16.85;9.98;;;;;;;15.83;61.57;93412.13;5032843;28;20029;-83
2021/05/05 04:42:30;;;;;;;12.85;8.73;;;;;;;15.87;61.45;93403.16;5025489;28;20060;-83
2021/05/05 04:44:56;;;;;;;12.55;8.70;;;;;;;15.81;62.76;93407.13;5041413;28;20048;-82
2021/05/05 04:47:21;;;;;;;11.30;8.88;;;;;;;15.86;62.72;93412.25;5048971;28;20060;-83
2021/05/05 04:49:47;;;;;;;15.75;8.88;;;;;;;15.95;61.46;93420.91;5040106;28;20099;-82
2021/05/05 04:52:12;;;;;;;14.38;9.05;;;;;;;16.06;61.79;93431.16;5027927;28;20123;-83
2021/05/05 04:54:37;;;;;;;10.80;9.50;;;;;;;16.03;61.07;93433.34;5028789;28;20402;-83
2021/05/05 04:57:03;;;;;;;14.73;9.05;;;;;;;16.21;60.96;93427.84;5031880;28;20122;-82
2021/05/05 04:59:28;;;;;;;16.65;10.57;;;;;;;16.18;61.11;93433.81;5014640;28;20090;-82
2021/05/05 05:01:57;;;;;;;10.93;9.10;;;;;;;15.97;63.05;93428.59;5030551;28;20494;-83
2021/05/05 05:04:22;;;;;;;14.13;9.02;;;;;;;15.92;62.77;93429.56;5029960;28;20131;-82
2021/05/05 05:06:47;;;;;;;15.32;8.95;;;;;;;15.81;62.71;93420.44;5050143;28;20402;-82
2021/05/05 05:09:13;;;;;;;14.50;9.25;;;;;;;15.84;64.06;93419.78;5037878;28;20033;-82
2021/05/05 05:11:38;;;;;;;13.25;9.00;;;;;;;15.96;61.93;93417.16;5045548;28;20055;-83
2021/05/05 05:14:04;;;;;;;12.93;10.52;;;;;;;15.99;61.71;93405.81;5049569;28;20511;-83
2021/05/05 05:16:29;;;;;;;16.15;10.27;;;;;;;16.28;60.97;93420.06;5033807;28;20037;-82
2021/05/05 05:18:54;;;;;;;14.77;10.23;;;;;;;16.38;60.89;93428.41;5049453;28;20031;-83
2021/05/05 05:21:20;;;;;;;23.27;9.80;;;;;;;16.66;60.39;93412.53;5050527;28;20545;-83
2021/05/05 05:23:46;;;;;;;17.50;10.27;;;;;;;16.76;59.60;93405.97;5037090;28;20040;-83
2021/05/05 05:26:11;;;;;;;13.63;10.32;;;;;;;16.88;59.45;93406.72;5046358;28;20068;-83
2021/05/05 05:28:36;;;;;;;16.42;10.30;;;;;;;17.23;59.39;93414.19;5050840;28;20053;-83
2021/05/05 05:31:02;;;;;;;16.70;10.02;;;;;;;17.36;58.50;93406.91;5048888;28;20059;-83
2021/05/05 05:33:28;;;;;;;26.40;10.20;;;;;;;17.83;58.10;93418.53;5043113;28;20040;-84
2021/05/05 05:35:53;;;;;;;12.45;8.95;;;;;;;18.27;54.31;93429.19;5031782;28;20710;-84
2021/05/05 05:38:19;;;;;;;14.88;9.05;;;;;;;18.55;52.62;93427.22;5011640;28;20144;-83
2021/05/05 05:40:44;;;;;;;12.98;9.70;;;;;;;18.82;53.55;93444.28;5030255;28;20052;-83
2021/05/05 05:43:10;;;;;;;12.23;9.70;;;;;;;19.07;52.60;93434.13;5042611;28;20037;-83
2021/05/05 05:45:36;;;;;;;15.63;8.98;;;;;;;19.31;51.56;93441.91;5047193;28;20582;-84
2021/05/05 05:48:02;;;;;;;11.15;9.05;;;;;;;19.45;51.81;93440.34;5049399;28;20117;-82
2021/05/05 05:50:27;;;;;;;14.50;9.18;;;;;;;19.52;50.44;93447.75;5049418;28;20044;-83
2021/05/05 05:52:52;;;;;;;14.65;8.80;;;;;;;19.53;50.99;93451.22;5045326;28;20048;-83
2021/05/05 05:55:19;;;;;;;15.07;10.07;;;;;;;19.49;50.64;93453.03;5050422;28;20025;-83
2021/05/05 05:57:47;;;;;;;15.38;10.18;;;;;;;20.38;50.09;93460.88;5039761;28;20033;-84
2021/05/05 06:00:16;;;;;;;13.40;9.57;;;;;;;21.75;46.09;93454.06;5045489;28;20064;-84
2021/05/05 06:02:42;;;;;;;14.98;10.13;;;;;;;22.15;44.14;93449.94;5036492;28;20486;-84
2021/05/05 06:05:09;;;;;;;11.85;9.25;;;;;;;22.72;43.60;93462.03;5027627;28;20052;-85
2021/05/05 06:07:35;;;;;;;17.30;9.15;;;;;;;24.60;39.86;93450.25;5011804;28;20041;-85
2021/05/05 06:10:01;;;;;;;17.40;8.98;;;;;;;26.37;36.15;93435.59;5019572;28;20040;-86
2021/05/05 06:12:26;;;;;;;13.48;10.65;;;;;;;27.55;33.49;93431.56;5046521;28;20524;-84
2021/05/05 06:14:52;;;;;;;11.65;8.88;;;;;;;28.87;31.62;93430.63;5019564;28;20041;-85
2021/05/05 06:17:18;;;;;;;15.30;9.50;;;;;;;30.00;29.50;93423.19;5009858;28;20037;-85
2021/05/05 06:19:44;;;;;;;13.52;10.18;;;;;;;30.31;29.29;93413.56;5020636;28;20510;-84
2021/05/05 06:22:10;;;;;;;13.88;10.80;;;;;;;30.42;28.13;93416.06;5047050;28;20036;-86
2021/05/05 06:24:35;;;;;;;11.52;10.02;;;;;;;30.83;28.31;93407.38;5047758;28;20558;-84
2021/05/05 06:27:01;;;;;;;12.27;9.35;;;;;;;31.56;26.94;93397.75;5031951;28;20412;-84
2021/05/05 06:29:27;;;;;;;15.30;9.45;;;;;;;31.75;27.27;93396.84;5017924;28;20045;-86
2021/05/05 06:31:52;;;;;;;13.52;9.57;;;;;;;33.21;25.07;93401.50;5043298;28;20053;-86
2021/05/05 06:34:18;;;;;;;11.43;9.35;;;;;;;33.46;24.79;93401.41;5047050;28;20044;-86
2021/05/05 06:36:43;;;;;;;10.18;9.27;;;;;;;34.35;23.92;93405.31;5050393;28;20040;-83
2021/05/05 06:39:11;;;;;;;10.18;9.13;;;;;;;34.79;23.07;93396.97;5029780;28;20088;-85
2021/05/05 06:41:38;;;;;;;9.85;8.88;;;;;;;35.01;22.47;93388.63;5048627;28;20848;-85
2021/05/05 06:44:04;;;;;;;15.23;9.35;;;;;;;35.14;22.58;93398.28;5040367;28;20087;-86
2021/05/05 06:46:30;;;;;;;10.10;9.18;;;;;;;34.42;23.65;93411.72;5035610;28;20471;-86
2021/05/05 06:48:58;;;;;;;12.63;9.48;;;;;;;34.32;22.85;93397.19;5051366;28;20086;-86
2021/05/05 06:51:25;;;;;;;12.43;8.68;;;;;;;34.10;23.29;93388.22;5035059;28;20037;-86
2021/05/05 06:53:51;;;;;;;10.93;8.38;;;;;;;34.66;22.72;93390.78;5041840;28;20053;-84
2021/05/05 06:56:17;;;;;;;13.43;8.00;;;;;;;34.36;22.92;93398.56;5040574;28;20042;-87
2021/05/05 06:58:43;;;;;;;10.05;7.55;;;;;;;34.34;22.88;93386.53;5034725;28;20474;-83
2021/05/05 07:01:12;;;;;;;12.48;7.47;;;;;;;34.83;22.36;93375.63;5053202;28;20525;-86
2021/05/05 07:03:37;;;;;;;8.93;8.05;;;;;;;34.39;22.36;93372.25;5050579;28;20052;-86
2021/05/05 07:06:03;;;;;;;12.40;6.65;;;;;;;34.44;23.09;93379.13;5052387;28;20041;-86
2021/05/05 07:08:28;;;;;;;7.43;5.75;;;;;;;34.68;22.84;93350.75;5036959;28;20054;-87
2021/05/05 07:10:54;;;;;;;7.75;5.75;;;;;;;35.15;22.60;93383.31;5034569;28;20048;-87
2021/05/05 07:13:20;;;;;;;7.10;5.20;;;;;;;35.90;21.90;93369.22;5049202;28;20033;-90
2021/05/05 07:15:46;;;;;;;6.75;4.78;;;;;;;36.32;20.89;93350.78;5032205;28;20037;-89
2021/05/05 07:18:12;;;;;;;8.13;4.97;;;;;;;35.84;21.39;93376.53;5031007;28;20083;-88
2021/05/05 07:20:37;;;;;;;9.18;4.50;;;;;;;35.92;21.05;93369.53;5049499;28;20045;-89
2021/05/05 07:23:03;;;;;;;13.77;4.63;;;;;;;36.07;20.56;93380.66;5042328;28;20264;-86
2021/05/05 07:25:28;;;;;;;9.23;4.60;;;;;;;36.69;20.43;93373.47;5020941;28;20678;-88
2021/05/05 07:27:57;;;;;;;9.25;4.75;;;;;;;35.82;20.26;93357.78;5053019;28;20487;-87
2021/05/05 07:30:23;;;;;;;7.00;4.65;;;;;;;36.28;20.71;93366.72;5031654;28;20061;-86
